createdAt,value
2019-03-22T00:01:18.229Z,58.47
2019-03-22T00:03:48.436Z,60.95
2019-03-22T00:06:18.714Z,59.37
2019-03-22T00:08:48.995Z,55.17
2019-03-22T00:11:19.203Z,60.67
2019-03-22T00:13:49.398Z,56.67
2019-03-22T00:16:19.613Z,57.13
2019-03-22T00:18:49.821Z,55.03
2019-03-22T00:21:20.044Z,58.73
2019-03-22T00:23:50.259Z,57.67
2019-03-22T00:26:20.486Z,57.97
2019-03-22T00:28:50.698Z,57.63
2019-03-22T00:31:20.932Z,58.78
2019-03-22T00:33:51.148Z,60.97
2019-03-22T00:36:21.372Z,54.40
2019-03-22T00:38:51.584Z,61.40
2019-03-22T00:41:21.816Z,56.97
2019-03-22T00:43:52.085Z,57.37
2019-03-22T00:46:22.308Z,58.40
2019-03-22T00:48:52.520Z,57.60
2019-03-22T00:51:22.745Z,58.23
2019-03-22T00:53:52.997Z,59.37
2019-03-22T00:56:23.261Z,57.45
2019-03-22T00:58:53.464Z,53.60
2019-03-22T01:01:23.694Z,56.33
2019-03-22T01:03:53.911Z,55.17
2019-03-22T01:06:24.119Z,50.47
2019-03-22T01:08:54.330Z,52.00
2019-03-22T01:11:24.553Z,55.90
2019-03-22T01:13:54.751Z,56.37
2019-03-22T01:16:25.116Z,62.77
2019-03-22T01:18:55.399Z,57.23
2019-03-22T01:21:25.624Z,59.13
2019-03-22T01:23:55.847Z,59.50
2019-03-22T01:26:26.067Z,53.67
2019-03-22T01:28:56.272Z,61.37
2019-03-22T01:31:26.494Z,53.83
2019-03-22T01:33:56.703Z,60.03
2019-03-22T01:36:26.919Z,63.13
2019-03-22T01:38:57.148Z,57.33
2019-03-22T01:41:27.355Z,52.60
2019-03-22T01:43:57.557Z,54.97
2019-03-22T01:46:27.782Z,50.27
2019-03-22T01:48:58.000Z,59.33
2019-03-22T01:51:28.293Z,54.47
2019-03-22T01:53:58.535Z,57.20
2019-03-22T01:56:28.758Z,56.80
2019-03-22T01:58:58.970Z,62.60
2019-03-22T02:01:29.190Z,54.30
2019-03-22T02:03:59.414Z,52.60
2019-03-22T02:06:29.692Z,57.50
2019-03-22T02:08:59.918Z,59.23
2019-03-22T02:11:30.125Z,63.63
2019-03-22T02:14:00.355Z,58.33
2019-03-22T02:16:30.571Z,53.83
2019-03-22T02:19:00.948Z,60.93
2019-03-22T02:21:31.161Z,61.57
2019-03-22T02:24:01.458Z,56.30
2019-03-22T02:26:32.011Z,63.77
2019-03-22T02:29:02.232Z,59.47
2019-03-22T02:31:32.531Z,61.27
2019-03-22T02:34:02.760Z,57.40
2019-03-22T02:36:32.973Z,58.27
2019-03-22T02:39:03.635Z,57.90
2019-03-22T02:41:34.392Z,59.33
2019-03-22T02:44:04.637Z,64.20
2019-03-22T02:46:35.803Z,60.63
2019-03-22T02:49:06.038Z,60.00
2019-03-22T02:51:36.248Z,61.47
2019-03-22T02:54:06.587Z,67.63
2019-03-22T02:56:37.777Z,54.50
2019-03-22T02:59:08.183Z,58.37
2019-03-22T03:01:38.421Z,63.90
2019-03-22T03:04:08.658Z,63.43
2019-03-22T03:06:38.867Z,54.60
2019-03-22T03:09:09.096Z,53.00
2019-03-22T03:11:39.312Z,57.97
2019-03-22T03:14:10.480Z,61.90
2019-03-22T03:16:40.699Z,60.33
2019-03-22T03:19:10.972Z,66.07
2019-03-22T03:21:41.179Z,55.87
2019-03-22T03:24:11.680Z,57.88
2019-03-22T03:26:41.895Z,55.97
2019-03-22T03:29:12.353Z,64.00
2019-03-22T03:31:42.584Z,66.17
2019-03-22T03:34:12.805Z,54.48
2019-03-22T03:36:43.293Z,71.20
2019-03-22T03:39:13.513Z,53.47
2019-03-22T03:41:44.089Z,50.37
2019-03-22T03:44:14.361Z,56.97
2019-03-22T03:46:44.607Z,56.75
2019-03-22T03:49:14.798Z,71.97
2019-03-22T03:51:45.031Z,58.37
2019-03-22T03:54:15.224Z,66.40
2019-03-22T03:56:46.407Z,59.03
2019-03-22T03:59:16.608Z,58.28
2019-03-22T04:01:46.826Z,63.03
2019-03-22T04:04:17.265Z,61.83
2019-03-22T04:06:47.734Z,66.80
2019-03-22T04:09:17.938Z,75.67
2019-03-22T04:11:48.152Z,57.97
2019-03-22T04:14:18.358Z,91.08
2019-03-22T04:16:48.568Z,61.70
2019-03-22T04:19:18.810Z,58.85
2019-03-22T04:21:49.291Z,60.53
2019-03-22T04:24:19.520Z,62.90
2019-03-22T04:26:49.716Z,59.55
2019-03-22T04:29:19.954Z,65.52
2019-03-22T04:31:50.164Z,58.73
2019-03-22T04:34:20.372Z,55.70
2019-03-22T04:36:50.580Z,57.83
2019-03-22T04:39:20.774Z,60.55
2019-03-22T04:41:50.978Z,63.43
2019-03-22T04:44:21.174Z,54.70
2019-03-22T04:46:51.935Z,60.90
2019-03-22T04:49:23.078Z,55.50
2019-03-22T04:51:55.125Z,57.50
2019-03-22T04:54:28.637Z,59.13
2019-03-22T04:56:59.204Z,66.07
2019-03-22T04:59:30.145Z,54.13
2019-03-22T05:02:02.480Z,56.33
2019-03-22T05:04:34.233Z,50.27
2019-03-22T05:07:05.970Z,54.07
2019-03-22T05:09:37.733Z,59.63
2019-03-22T05:12:10.843Z,59.03
2019-03-22T05:14:43.093Z,56.43
2019-03-22T05:17:15.158Z,64.67
2019-03-22T05:19:50.820Z,52.87
2019-03-22T05:22:23.037Z,68.13
2019-03-22T05:24:55.107Z,59.83
2019-03-22T05:27:26.564Z,52.57
2019-03-22T05:29:59.267Z,54.40
2019-03-22T05:32:29.502Z,60.13
2019-03-22T05:34:59.704Z,48.07
2019-03-22T05:37:30.154Z,55.30
2019-03-22T05:40:00.428Z,70.40
2019-03-22T05:42:30.593Z,77.77
2019-03-22T05:45:00.786Z,63.83
2019-03-22T05:47:30.997Z,50.67
2019-03-22T05:50:01.196Z,61.10
2019-03-22T05:52:31.414Z,55.67
2019-03-22T05:55:01.694Z,57.97
2019-03-22T05:57:31.887Z,49.93
2019-03-22T06:00:02.222Z,70.03
2019-03-22T06:02:32.505Z,48.60
2019-03-22T06:05:02.728Z,54.50
2019-03-22T06:07:32.929Z,57.93
2019-03-22T06:10:03.153Z,57.63
2019-03-22T06:12:33.354Z,51.80
2019-03-22T06:15:04.366Z,54.50
2019-03-22T06:17:34.599Z,58.73
2019-03-22T06:20:05.904Z,62.57
2019-03-22T06:22:36.164Z,51.00
2019-03-22T06:25:06.764Z,64.93
2019-03-22T06:27:36.958Z,60.10
2019-03-22T06:30:08.436Z,51.67
2019-03-22T06:32:38.788Z,50.73
2019-03-22T06:35:09.153Z,52.03
2019-03-22T06:37:39.373Z,54.97
2019-03-22T06:40:09.864Z,57.97
2019-03-22T06:42:40.058Z,49.67
2019-03-22T06:45:10.485Z,48.27
2019-03-22T06:47:40.691Z,60.77
2019-03-22T06:50:11.253Z,49.03
2019-03-22T06:52:41.461Z,49.42
2019-03-22T06:55:11.814Z,57.03
2019-03-22T06:57:42.096Z,48.30
2019-03-22T07:00:12.466Z,50.83
2019-03-22T07:02:42.671Z,60.13
2019-03-22T07:05:13.795Z,55.93
2019-03-22T07:07:44.025Z,55.80
2019-03-22T07:10:14.404Z,47.73
2019-03-22T07:12:44.604Z,50.55
2019-03-22T07:15:14.979Z,52.83
2019-03-22T07:17:45.178Z,49.80
2019-03-22T07:20:15.476Z,49.88
2019-03-22T07:22:45.923Z,49.00
2019-03-22T07:25:16.403Z,51.75
2019-03-22T07:27:46.601Z,52.27
2019-03-22T07:30:19.096Z,48.83
2019-03-22T07:32:50.426Z,51.33
2019-03-22T07:35:23.545Z,53.60
2019-03-22T07:37:53.745Z,50.20
2019-03-22T07:40:23.991Z,50.30
2019-03-22T07:42:54.182Z,50.27
2019-03-22T07:45:24.432Z,51.50
2019-03-22T07:47:55.881Z,52.30
2019-03-22T07:50:26.289Z,50.77
2019-03-22T07:52:56.499Z,53.27
2019-03-22T07:55:26.751Z,54.07
2019-03-22T07:57:56.948Z,54.80
2019-03-22T08:00:31.152Z,50.27
2019-03-22T08:02:59.345Z,51.43
2019-03-22T08:05:29.557Z,54.97
2019-03-22T08:07:59.782Z,55.90
2019-03-22T08:10:30.006Z,54.27
2019-03-22T08:13:00.245Z,51.10
2019-03-22T08:15:32.144Z,52.50
2019-03-22T08:18:02.713Z,51.63
2019-03-22T08:20:32.911Z,53.83
2019-03-22T08:23:04.693Z,52.93
2019-03-22T08:25:34.901Z,52.77
2019-03-22T08:28:05.693Z,54.73
2019-03-22T08:30:42.929Z,55.00
2019-03-22T08:33:08.815Z,54.37
2019-03-22T08:35:39.114Z,50.90
2019-03-22T08:38:09.282Z,51.10
2019-03-22T08:40:39.496Z,51.93
2019-03-22T08:43:09.801Z,52.70
2019-03-22T08:45:40.016Z,50.57
2019-03-22T08:48:10.214Z,51.70
2019-03-22T08:50:40.416Z,50.30
2019-03-22T08:53:10.818Z,50.07
2019-03-22T08:55:41.019Z,48.87
2019-03-22T08:58:11.286Z,51.55
2019-03-22T09:00:41.599Z,48.23
2019-03-22T09:03:11.888Z,44.17
2019-03-22T09:05:42.099Z,47.13
2019-03-22T09:08:12.333Z,49.10
2019-03-22T09:10:42.621Z,48.05
2019-03-22T09:13:12.859Z,48.47
2019-03-22T09:15:43.046Z,48.07
2019-03-22T09:18:15.531Z,45.95
2019-03-22T09:20:46.279Z,45.60
2019-03-22T09:23:16.466Z,49.58
2019-03-22T09:25:46.772Z,45.33
2019-03-22T09:28:17.006Z,44.00
2019-03-22T09:30:47.297Z,44.40
2019-03-22T09:33:17.474Z,44.08
2019-03-22T09:35:48.799Z,43.37
2019-03-22T09:38:18.962Z,41.88
2019-03-22T09:40:49.406Z,40.00
2019-03-22T09:43:19.606Z,44.18
2019-03-22T09:45:49.838Z,41.13
2019-03-22T09:48:20.103Z,39.58
2019-03-22T09:50:50.395Z,38.40
2019-03-22T09:53:20.592Z,38.83
2019-03-22T09:55:50.913Z,38.83
2019-03-22T09:58:21.126Z,39.40
2019-03-22T10:00:51.395Z,37.37
2019-03-22T10:03:21.557Z,39.58
2019-03-22T10:05:52.050Z,38.60
2019-03-22T10:08:22.242Z,35.98
2019-03-22T10:10:52.460Z,36.97
2019-03-22T10:13:22.697Z,36.40
2019-03-22T10:15:52.891Z,38.17
2019-03-22T10:18:23.364Z,39.05
2019-03-22T10:20:53.619Z,37.17
2019-03-22T10:23:23.892Z,35.47
2019-03-22T10:25:54.074Z,35.17
2019-03-22T10:28:24.309Z,34.50
2019-03-22T10:30:54.539Z,34.37
2019-03-22T10:33:24.790Z,32.77
2019-03-22T10:35:55.320Z,31.63
2019-03-22T10:38:31.928Z,29.83
2019-03-22T10:40:57.448Z,28.03
2019-03-22T10:43:33.553Z,26.93
2019-03-22T10:46:09.359Z,28.73
2019-03-22T10:48:40.879Z,28.27
2019-03-22T10:51:11.197Z,27.17
2019-03-22T10:53:41.468Z,27.27
2019-03-22T10:56:12.756Z,27.40
2019-03-22T10:58:43.035Z,26.40
2019-03-22T11:01:13.524Z,25.08
2019-03-22T11:03:43.759Z,28.20
2019-03-22T11:06:14.029Z,27.13
2019-03-22T11:08:44.491Z,27.13
2019-03-22T11:11:14.706Z,26.90
2019-03-22T11:13:44.927Z,24.33
2019-03-22T11:16:15.207Z,25.62
2019-03-22T11:18:45.494Z,24.67
2019-03-22T11:21:15.739Z,23.83
2019-03-22T11:23:46.028Z,23.63
2019-03-22T11:26:16.232Z,20.77
2019-03-22T11:28:46.455Z,22.60
2019-03-22T11:31:16.777Z,20.47
2019-03-22T11:33:46.993Z,20.10
2019-03-22T11:36:17.249Z,23.40
2019-03-22T11:38:47.434Z,19.03
2019-03-22T11:41:17.665Z,17.87
2019-03-22T11:43:47.883Z,18.70
2019-03-22T11:46:18.179Z,15.32
2019-03-22T11:48:48.471Z,15.47
2019-03-22T11:51:18.760Z,16.85
2019-03-22T11:53:49.262Z,16.13
2019-03-22T11:56:19.495Z,15.30
2019-03-22T11:58:49.717Z,14.70
2019-03-22T12:01:22.307Z,15.15
2019-03-22T12:03:51.941Z,14.43
2019-03-22T12:06:22.146Z,15.07
2019-03-22T12:08:52.350Z,15.70
2019-03-22T12:11:22.574Z,15.10
2019-03-22T12:13:52.891Z,13.23
2019-03-22T12:16:23.124Z,13.67
2019-03-22T12:18:53.342Z,12.80
2019-03-22T12:21:23.641Z,13.13
2019-03-22T12:23:53.863Z,12.23
2019-03-22T12:26:24.090Z,11.47
2019-03-22T12:28:54.326Z,10.60
2019-03-22T12:31:24.537Z,10.63
2019-03-22T12:33:54.798Z,10.10
2019-03-22T12:36:25.013Z,10.40
2019-03-22T12:38:55.252Z,11.37
2019-03-22T12:41:25.462Z,10.47
2019-03-22T12:43:55.688Z,11.70
2019-03-22T12:46:25.904Z,11.40
2019-03-22T12:48:56.114Z,10.67
2019-03-22T12:51:26.331Z,10.30
2019-03-22T12:53:56.590Z,10.67
2019-03-22T12:56:26.886Z,9.90
2019-03-22T12:58:57.102Z,10.07
2019-03-22T13:01:28.432Z,10.53
2019-03-22T13:03:58.701Z,10.97
2019-03-22T13:06:28.921Z,10.87
2019-03-22T13:08:59.134Z,11.97
2019-03-22T13:11:29.365Z,11.73
2019-03-22T13:13:59.654Z,11.27
2019-03-22T13:16:29.873Z,10.03
2019-03-22T13:19:00.100Z,11.60
2019-03-22T13:21:30.322Z,11.50
2019-03-22T13:24:00.554Z,11.97
2019-03-22T13:26:31.747Z,11.10
2019-03-22T13:29:01.966Z,11.70
2019-03-22T13:31:32.178Z,10.40
2019-03-22T13:34:02.652Z,12.03
2019-03-22T13:36:32.896Z,11.73
2019-03-22T13:39:03.910Z,11.13
2019-03-22T13:41:34.309Z,12.83
2019-03-22T13:44:05.534Z,11.85
2019-03-22T13:46:40.217Z,10.57
2019-03-22T13:49:07.693Z,11.10
2019-03-22T13:51:37.924Z,11.07
2019-03-22T13:54:08.159Z,13.50
2019-03-22T13:56:38.381Z,12.40
2019-03-22T13:59:08.636Z,12.23
2019-03-22T14:01:38.843Z,13.73
2019-03-22T14:04:09.287Z,12.10
2019-03-22T14:06:39.505Z,13.23
2019-03-22T14:09:09.929Z,13.03
2019-03-22T14:11:40.378Z,12.57
2019-03-22T14:14:10.568Z,17.10
2019-03-22T14:16:40.777Z,15.13
2019-03-22T14:19:10.972Z,13.27
2019-03-22T14:21:41.166Z,12.37
2019-03-22T14:24:11.631Z,13.50
2019-03-22T14:26:41.814Z,14.33
2019-03-22T14:29:12.031Z,12.70
2019-03-22T14:31:42.485Z,11.57
2019-03-22T14:34:12.756Z,12.90
2019-03-22T14:36:42.970Z,13.03
2019-03-22T14:39:14.136Z,12.10
2019-03-22T14:41:44.365Z,13.00
2019-03-22T14:44:14.565Z,12.73
2019-03-22T14:46:44.765Z,13.57
2019-03-22T14:49:14.976Z,14.10
2019-03-22T14:51:45.328Z,12.80
2019-03-22T14:54:15.527Z,12.37
2019-03-22T14:56:45.752Z,13.00
2019-03-22T14:59:16.210Z,12.47
2019-03-22T15:01:46.423Z,13.10
2019-03-22T15:04:16.647Z,12.17
2019-03-22T15:06:46.949Z,14.10
2019-03-22T15:09:17.304Z,13.00
2019-03-22T15:11:47.503Z,12.80
2019-03-22T15:14:36.732Z,13.83
2019-03-22T15:17:19.811Z,13.60
2019-03-22T15:20:05.338Z,14.00
2019-03-22T15:23:13.548Z,13.05
2019-03-22T15:26:01.415Z,15.90
2019-03-22T15:29:02.173Z,13.23
2019-03-22T15:31:50.302Z,13.97
2019-03-22T15:34:38.295Z,14.78
2019-03-22T15:37:33.440Z,13.95
2019-03-22T15:40:04.595Z,13.57
2019-03-22T15:42:35.363Z,14.50
2019-03-22T15:45:07.784Z,15.63
2019-03-22T15:47:38.035Z,13.53
2019-03-22T15:50:09.910Z,14.43
2019-03-22T15:52:40.105Z,15.10
2019-03-22T15:55:11.558Z,15.80
2019-03-22T15:57:41.932Z,15.77
2019-03-22T16:00:15.212Z,14.87
2019-03-22T16:02:45.736Z,15.07
2019-03-22T16:05:16.369Z,14.83
2019-03-22T16:07:47.731Z,15.13
2019-03-22T16:10:18.010Z,14.17
2019-03-22T16:12:48.216Z,14.97
2019-03-22T16:15:18.571Z,15.67
2019-03-22T16:17:48.781Z,12.17
2019-03-22T16:20:19.068Z,14.83
2019-03-22T16:22:49.256Z,14.57
2019-03-22T16:25:19.472Z,15.20
2019-03-22T16:27:49.801Z,13.97
2019-03-22T16:30:20.300Z,14.25
2019-03-22T16:32:50.508Z,15.60
2019-03-22T16:35:20.714Z,13.75
2019-03-22T16:37:51.106Z,14.63
2019-03-22T16:40:24.523Z,15.40
2019-03-22T16:42:53.289Z,14.77
2019-03-22T16:45:40.453Z,14.38
2019-03-22T16:48:10.884Z,13.77
2019-03-22T16:50:42.302Z,14.10
2019-03-22T16:53:12.799Z,13.55
2019-03-22T16:55:42.991Z,14.37
2019-03-22T16:58:13.274Z,13.38
2019-03-22T17:00:43.641Z,12.93
2019-03-22T17:03:13.954Z,13.57
2019-03-22T17:05:44.252Z,14.10
2019-03-22T17:08:14.447Z,14.43
2019-03-22T17:10:44.936Z,13.20
2019-03-22T17:13:15.189Z,14.80
2019-03-22T17:15:45.485Z,14.40
2019-03-22T17:18:15.687Z,16.43
2019-03-22T17:20:45.917Z,15.07
2019-03-22T17:23:16.185Z,14.67
2019-03-22T17:25:46.388Z,12.90
2019-03-22T17:28:16.844Z,14.47
2019-03-22T17:30:47.281Z,14.80
2019-03-22T17:33:17.541Z,16.10
2019-03-22T17:35:48.725Z,17.30
2019-03-22T17:38:19.179Z,19.03
2019-03-22T17:40:49.599Z,17.40
2019-03-22T17:43:19.835Z,51.37
2019-03-22T17:45:50.452Z,47.83
2019-03-22T17:48:20.667Z,59.70
2019-03-22T17:50:50.892Z,44.40
2019-03-22T17:53:21.186Z,34.27
2019-03-22T17:55:52.351Z,30.70
2019-03-22T17:58:22.560Z,39.23
2019-03-22T18:00:52.826Z,34.30
2019-03-22T18:03:24.275Z,29.13
2019-03-22T18:05:54.477Z,28.00
2019-03-22T18:08:24.685Z,30.80
2019-03-22T18:10:54.868Z,30.80
2019-03-22T18:13:25.086Z,25.43
2019-03-22T18:15:55.280Z,23.03
2019-03-22T18:18:25.552Z,24.53
2019-03-22T18:20:56.047Z,21.63
2019-03-22T18:23:35.425Z,17.23
2019-03-22T18:25:58.235Z,15.10
2019-03-22T18:28:28.450Z,14.60
2019-03-22T18:30:58.650Z,14.10
2019-03-22T18:33:29.022Z,13.87
2019-03-22T18:35:59.216Z,12.20
2019-03-22T18:38:29.429Z,11.90
2019-03-22T18:40:59.640Z,11.70
2019-03-22T18:43:29.924Z,10.63
2019-03-22T18:46:00.133Z,10.93
2019-03-22T18:48:30.331Z,10.60
2019-03-22T18:51:00.547Z,10.87
2019-03-22T18:53:31.286Z,10.03
2019-03-22T18:56:01.559Z,10.90
2019-03-22T18:58:31.778Z,9.90
2019-03-22T19:01:02.182Z,10.00
2019-03-22T19:03:32.419Z,9.60
2019-03-22T19:06:02.616Z,9.50
2019-03-22T19:08:43.415Z,11.47
2019-03-22T19:11:13.699Z,10.40
2019-03-22T19:13:44.098Z,10.07
2019-03-22T19:16:14.289Z,11.83
2019-03-22T19:18:44.500Z,10.53
2019-03-22T19:21:14.690Z,13.33
2019-03-22T19:23:45.060Z,25.20
2019-03-22T19:26:15.485Z,21.60
2019-03-22T19:28:45.688Z,20.83
2019-03-22T19:31:15.953Z,24.87
2019-03-22T19:33:46.175Z,22.07
2019-03-22T19:36:16.437Z,22.23
2019-03-22T19:38:46.645Z,17.47
2019-03-22T19:41:16.871Z,14.68
2019-03-22T19:43:47.086Z,14.40
2019-03-22T19:46:17.283Z,12.37
2019-03-22T19:48:47.490Z,12.30
2019-03-22T19:51:17.699Z,12.53
2019-03-22T19:53:48.222Z,13.47
2019-03-22T19:56:18.433Z,13.37
2019-03-22T19:58:48.632Z,12.83
2019-03-22T20:01:19.127Z,25.60
2019-03-22T20:03:49.344Z,22.40
2019-03-22T20:06:19.575Z,20.90
2019-03-22T20:08:49.793Z,17.67
2019-03-22T20:11:20.100Z,17.77
2019-03-22T20:13:50.272Z,14.73
2019-03-22T20:16:20.478Z,14.77
2019-03-22T20:18:50.687Z,16.90
2019-03-22T20:21:20.905Z,17.13
2019-03-22T20:23:53.856Z,16.83
2019-03-22T20:26:23.012Z,17.27
2019-03-22T20:29:10.686Z,17.13
2019-03-22T20:31:40.912Z,17.63
2019-03-22T20:34:11.104Z,18.60
2019-03-22T20:36:43.670Z,18.47
2019-03-22T20:39:13.191Z,17.33
2019-03-22T20:41:43.476Z,18.30
2019-03-22T20:44:13.676Z,17.67
2019-03-22T20:46:44.033Z,18.43
2019-03-22T20:49:14.232Z,18.87
2019-03-22T20:51:44.442Z,17.67
2019-03-22T20:54:15.117Z,16.97
2019-03-22T20:56:45.402Z,17.90
2019-03-22T20:59:15.623Z,17.17
2019-03-22T21:01:46.077Z,17.73
2019-03-22T21:04:16.264Z,19.63
2019-03-22T21:06:46.509Z,19.03
2019-03-22T21:09:16.733Z,20.35
2019-03-22T21:11:47.789Z,18.50
2019-03-22T21:14:17.981Z,18.60
2019-03-22T21:16:49.177Z,16.93
2019-03-22T21:19:19.614Z,18.90
2019-03-22T21:21:49.992Z,17.73
2019-03-22T21:24:20.182Z,19.80
2019-03-22T21:26:50.620Z,20.30
2019-03-22T21:29:20.817Z,20.47
2019-03-22T21:31:51.027Z,19.73
2019-03-22T21:34:21.222Z,20.57
2019-03-22T21:36:51.491Z,19.47
2019-03-22T21:39:21.692Z,21.77
2019-03-22T21:41:51.930Z,25.57
2019-03-22T21:44:22.125Z,25.57
2019-03-22T21:46:52.597Z,25.70
2019-03-22T21:49:22.819Z,26.55
2019-03-22T21:51:53.019Z,25.47
2019-03-22T21:54:23.257Z,23.43
2019-03-22T21:56:53.469Z,23.73
2019-03-22T21:59:23.691Z,25.37
2019-03-22T22:01:53.905Z,28.27
2019-03-22T22:04:24.101Z,32.17
2019-03-22T22:06:54.388Z,36.50
2019-03-22T22:09:24.578Z,37.77
2019-03-22T22:11:55.042Z,38.80
2019-03-22T22:14:25.237Z,39.20
2019-03-22T22:16:55.458Z,37.93
2019-03-22T22:19:25.641Z,36.47
2019-03-22T22:21:56.304Z,36.27
2019-03-22T22:24:27.009Z,38.23
2019-03-22T22:26:57.477Z,37.00
2019-03-22T22:29:27.736Z,38.47
2019-03-22T22:31:58.212Z,37.77
2019-03-22T22:34:29.375Z,37.27
2019-03-22T22:36:59.604Z,37.63
2019-03-22T22:39:29.929Z,39.23
2019-03-22T22:42:00.122Z,38.37
2019-03-22T22:44:30.332Z,40.50
2019-03-22T22:47:00.533Z,38.67
2019-03-22T22:49:30.752Z,39.48
2019-03-22T22:52:01.215Z,41.43
2019-03-22T22:54:31.491Z,42.40
2019-03-22T22:57:01.710Z,41.00
2019-03-22T22:59:31.914Z,41.13
2019-03-22T23:02:02.202Z,43.50
2019-03-22T23:04:32.519Z,42.93
2019-03-22T23:07:07.613Z,45.33
2019-03-22T23:09:40.976Z,45.40
2019-03-22T23:12:11.176Z,48.80
2019-03-22T23:14:41.544Z,45.63
2019-03-22T23:17:11.975Z,49.75
2019-03-22T23:19:42.175Z,48.13
2019-03-22T23:22:12.365Z,49.73
2019-03-22T23:24:42.790Z,50.40
2019-03-22T23:27:13.036Z,49.88
2019-03-22T23:29:44.209Z,48.87
2019-03-22T23:32:14.392Z,48.48
2019-03-22T23:34:44.749Z,49.00
2019-03-22T23:37:14.947Z,50.10
2019-03-22T23:39:45.177Z,52.37
2019-03-22T23:42:15.369Z,54.43
2019-03-22T23:44:45.586Z,52.73
2019-03-22T23:47:15.773Z,55.98
2019-03-22T23:49:46.010Z,54.43
2019-03-22T23:52:16.206Z,58.63
2019-03-22T23:54:46.655Z,56.13
2019-03-22T23:57:16.865Z,60.35
2019-03-22T23:59:47.061Z,52.33
